Latest Weather Observations for Gold Coast Seaway

IDQ60901

Issued at 8:01 am EST Saturday 23 May 2015 (issued every 10 minutes, with the page automatically refreshed every 10 minutes)

About weather observations | Map of Brisbane area stations | Latest observations for Brisbane area | Other Formats
Station Details ID: 040764 Name: GOLD COAST SEAWAY Lat: -27.94 Lon: 153.43 Height: 2.98 m
Data from the previous 72 hours. | See also: Recent months at Gold Coast Seaway
Date/Time
EST
Tmp

°C
App
Tmp
°C
Dew
Point
°C
Rel
Hum
%
Delta-T

°C
Wind Press
QNH
hPa
Press
MSL
hPa
Rain
since
9 am
mm
Dir
 
Spd
km/h
Gust
km/h
Spd
kts
Gust
kts
23/08:00am 17.9 11.9 10.0 60 4.2 S 32 50 17 27 1022.1 1022.1 0.2
23/07:51am 17.8 12.1 9.7 59 4.2 S 30 48 16 26 1022.1 1022.1 0.2
23/07:30am 17.6 11.7 9.2 58 4.4 S 30 41 16 22 1021.7 1021.7 0.2
23/07:00am 16.9 10.7 9.3 61 3.9 S 32 48 17 26 1021.2 1021.2 0.2
23/06:34am 16.7 10.9 9.6 63 3.7 S 30 50 16 27 1020.7 1020.7 0.2
23/06:30am 16.6 10.9 9.8 64 3.6 S 30 39 16 21 1020.6 1020.6 0.2
23/06:00am 16.4 11.8 9.6 64 3.5 S 24 35 13 19 1020.0 1020.0 0.2
23/05:30am 16.4 10.9 9.3 63 3.7 S 28 35 15 19 1019.9 1019.9 0.2
23/05:00am 16.4 11.8 9.6 64 3.5 S 24 35 13 19 1019.7 1019.7 0.2
23/04:30am 16.4 10.9 9.3 63 3.7 S 28 41 15 22 1019.5 1019.5 0.2
23/04:00am 16.5 11.0 9.2 62 3.8 S 28 37 15 20 1019.3 1019.3 0.2
23/03:30am 16.9 11.4 9.3 61 3.9 S 28 43 15 23 1019.2 1019.2 0.2
23/03:00am 16.6 10.4 9.5 63 3.7 S 32 39 17 21 1019.0 1019.0 0.2
23/02:37am 16.9 10.6 9.1 60 4.0 S 32 52 17 28 1019.1 1019.1 0.2
23/02:30am 16.9 11.1 9.3 61 3.9 S 30 41 16 22 1019.0 1019.0 0.2
23/02:00am 17.0 11.1 9.2 60 4.0 S 30 48 16 26 1019.2 1019.2 0.2
23/01:32am 17.4 11.5 9.1 58 4.3 S 30 48 16 26 1019.2 1019.2 0.2
23/01:30am 17.4 11.5 9.1 58 4.3 S 30 41 16 22 1019.2 1019.2 0.2
23/01:00am 17.5 12.9 9.7 60 4.1 S 24 37 13 20 1018.9 1018.9 0.2
23/12:41am 17.7 12.4 9.8 60 4.2 S 28 46 15 25 1018.9 1018.9 0.2
23/12:30am 17.6 13.5 10.2 62 3.9 S 22 32 12 17 1018.9 1018.9 0.2
23/12:00am 17.7 13.6 10.1 61 4.0 S 22 30 12 16 1018.6 1018.6 0.2
 
Date/Time
EST
Tmp

°C
App
Tmp
°C
Dew
Point
°C
Rel
Hum
%
Delta-T

°C
Wind Press
QNH
hPa
Press
MSL
hPa
Rain
since
9 am
mm
Dir
 
Spd
km/h
Gust
km/h
Spd
kts
Gust
kts
22/11:30pm 17.1 13.9 9.8 62 3.8 SSW 17 30 9 16 1018.6 1018.6 0.2
22/11:00pm 16.2 13.4 8.7 61 3.8 WNW 13 17 7 9 1018.7 1018.7 0.2
22/10:30pm 15.8 12.6 8.3 61 3.8 W 15 17 8 9 1018.4 1018.4 0.2
22/10:00pm 16.2 12.1 7.9 58 4.2 WNW 19 22 10 12 1018.6 1018.6 0.2
22/09:30pm 16.4 13.1 8.1 58 4.2 NW 15 19 8 10 1018.2 1018.2 0.2
22/09:00pm 16.4 12.6 7.6 56 4.4 W 17 20 9 11 1017.9 1017.9 0.2
22/08:30pm 16.7 11.9 7.4 54 4.6 W 22 30 12 16 1017.7 1017.7 0.2
22/08:00pm 16.6 11.7 7.0 53 4.7 W 22 26 12 14 1017.4 1017.4 0.2
22/07:30pm 17.0 11.8 7.1 52 4.9 WNW 24 30 13 16 1017.0 1017.0 0.2
22/07:00pm 17.1 11.8 6.9 51 5.1 W 24 28 13 15 1016.6 1016.6 0.2
22/06:30pm 17.2 12.8 6.7 50 5.2 W 19 24 10 13 1016.3 1016.3 0.2
22/06:00pm 17.2 13.6 6.7 50 5.2 W 15 17 8 9 1016.0 1016.0 0.2
22/05:30pm 17.6 13.6 6.5 48 5.5 W 17 19 9 10 1015.5 1015.5 0.2
22/05:00pm 18.2 13.1 6.1 45 5.9 WSW 22 37 12 20 1015.2 1015.2 0.2
22/04:30pm 19.0 13.5 5.8 42 6.5 W 24 39 13 21 1014.9 1014.9 0.2
22/04:00pm 19.6 15.1 6.3 42 6.6 WSW 19 32 10 17 1014.7 1014.7 0.2
22/03:30pm 20.0 15.5 6.0 40 7.0 WSW 19 30 10 16 1014.0 1014.0 0.2
22/03:00pm 20.2 15.6 6.5 41 6.9 W 20 32 11 17 1014.1 1014.1 0.2
22/02:30pm 20.2 14.1 6.5 41 6.9 W 28 39 15 21 1014.0 1014.0 0.2
22/02:00pm 20.0 13.9 6.7 42 6.7 WNW 28 37 15 20 1014.0 1014.0 0.2
22/01:30pm 20.0 14.4 5.6 39 7.1 WSW 24 33 13 18 1014.2 1014.2 0.2
22/01:00pm 19.7 13.1 6.1 41 6.8 W 30 39 16 21 1014.3 1014.3 0.2
22/12:30pm 19.6 13.9 6.7 43 6.5 W 26 37 14 20 1014.5 1014.5 0.2
22/12:01pm 19.2 12.8 7.0 45 6.2 W 30 48 16 26 1014.9 1014.9 0.2
22/12:00pm 19.2 12.5 7.3 46 6.0 W 32 48 17 26 1014.9 1014.9 0.2
22/11:37am 18.9 12.6 7.4 47 5.8 W 30 48 16 26 1015.0 1015.0 0.2
22/11:30am 18.9 12.6 7.4 47 5.8 WSW 30 41 16 22 1015.2 1015.2 0.2
22/11:00am 18.6 13.0 7.1 47 5.8 WSW 26 37 14 20 1015.6 1015.6 0.2
22/10:56am 18.3 12.9 6.5 46 5.9 W 24 33 13 18 1015.6 1015.6 0.2
22/10:30am 18.2 9.9 7.9 51 5.2 WNW 41 50 22 27 1015.6 1015.6 0.0
22/10:00am 18.3 12.2 9.9 58 4.4 WNW 32 41 17 22 1015.9 1015.9 0.0
22/09:30am 18.4 14.4 10.5 60 4.2 W 22 32 12 17 1016.3 1016.3 0.0
22/09:00am 18.2 15.0 12.0 67 3.4 WNW 20 30 11 16 1016.3 1016.3 -
22/08:30am 17.6 17.5 17.0 96 0.4 NW 13 17 7 9 1016.0 1016.0 -
22/08:00am 17.3 16.2 14.2 82 1.8 NW 13 15 7 8 1015.8 1015.8 -
22/07:30am 16.8 16.3 16.8 100 0.0 NW 15 19 8 10 1015.6 1015.6 -
22/07:00am 16.2 14.1 16.2 100 0.0 WNW 22 26 12 14 1015.6 1015.6 -
22/06:30am 16.1 13.6 16.1 100 0.0 WNW 24 28 13 15 1015.3 1015.3 -
22/06:00am 16.2 15.0 16.2 100 0.0 WNW 17 19 9 10 1015.3 1015.3 -
22/05:30am 16.3 15.6 16.3 100 0.0 WNW 15 19 8 10 1015.0 1015.0 -
22/05:00am 16.4 16.8 16.4 100 0.0 WNW 9 13 5 7 1014.9 1014.9 -
22/04:30am 16.4 16.8 16.4 100 0.0 NNW 9 11 5 6 1015.0 1015.0 -
22/04:00am 16.4 16.1 16.4 100 0.0 NNW 13 15 7 8 1015.0 1015.0 -
22/03:30am 16.4 16.5 16.4 100 0.0 NNW 11 15 6 8 1014.9 1014.9 -
22/03:00am 16.6 16.4 16.6 100 0.0 NNW 13 17 7 9 1015.1 1015.1 -
22/02:30am 16.6 16.7 16.6 100 0.0 NNW 11 17 6 9 1015.0 1015.0 -
22/02:00am 16.6 16.4 16.6 100 0.0 NNW 13 17 7 9 1015.4 1015.4 -
22/01:30am 16.7 16.9 16.7 100 0.0 NNW 11 13 6 7 1015.7 1015.7 -
22/01:00am 16.9 17.5 16.9 100 0.0 NW 9 13 5 7 1016.1 1016.1 -
22/12:30am 17.2 17.6 17.2 100 0.0 NW 11 15 6 8 1016.5 1016.5 -
22/12:00am 17.3 17.0 17.3 100 0.0 NNW 15 22 8 12 1016.5 1016.5 -
 
Date/Time
EST
Tmp

°C
App
Tmp
°C
Dew
Point
°C
Rel
Hum
%
Delta-T

°C
Wind Press
QNH
hPa
Press
MSL
hPa
Rain
since
9 am
mm
Dir
 
Spd
km/h
Gust
km/h
Spd
kts
Gust
kts
21/11:00pm 17.5 17.6 17.5 100 0.0 W 13 15 7 8 1016.9 1016.9 8.0
21/10:30pm 17.6 17.8 17.6 100 0.0 WNW 13 15 7 8 1017.3 1017.3 7.8
21/10:00pm 17.7 19.1 17.7 100 0.0 SW 7 11 4 6 1017.6 1017.6 7.6
21/09:30pm 17.7 20.0 17.7 100 0.0 SSW 2 7 1 4 1017.4 1017.4 7.2
21/09:00pm 17.6 18.5 17.6 100 0.0 SSW 9 13 5 7 1017.3 1017.3 6.6
21/08:30pm 17.9 18.6 17.9 100 0.0 SSW 11 13 6 7 1017.5 1017.5 6.0
21/08:00pm 18.3 18.8 18.3 100 0.0 SSE 13 17 7 9 1017.6 1017.6 5.4
21/07:30pm 18.1 18.9 18.1 100 0.0 S 11 17 6 9 1017.5 1017.5 5.4
21/07:00pm 18.2 18.6 18.2 100 0.0 S 13 17 7 9 1017.5 1017.5 5.4
21/06:30pm 18.2 17.3 18.2 100 0.0 SE 20 24 11 13 1016.9 1016.9 5.4
21/06:00pm 18.0 16.3 18.0 100 0.0 SSE 24 28 13 15 1017.0 1017.0 5.4
21/05:30pm 17.9 15.3 17.9 100 0.0 SSE 28 33 15 18 1016.9 1016.9 5.4
21/05:00pm 18.4 16.4 18.4 100 0.0 S 26 37 14 20 1016.9 1016.9 5.4
21/04:30pm 20.3 18.8 20.3 100 0.0 SE 28 37 15 20 1016.1 1016.1 0.0
21/04:00pm 21.0 20.3 21.0 100 0.0 SSE 26 30 14 16 1015.9 1015.9 0.0
21/03:30pm 21.3 20.0 21.3 100 0.0 SE 30 33 16 18 1015.8 1015.8 0.0
21/03:00pm 21.5 20.6 21.5 100 0.0 SSE 28 35 15 19 1015.8 1015.8 0.0
21/02:30pm 23.4 25.7 22.7 96 0.5 W 15 20 8 11 1015.6 1015.6 0.0
21/02:00pm 23.7 25.0 21.6 88 1.4 W 17 24 9 13 1015.3 1015.3 0.0
21/01:30pm 24.2 26.9 22.8 92 0.9 W 13 19 7 10 1015.3 1015.3 0.0
21/01:00pm 24.2 26.0 22.6 91 1.1 W 17 20 9 11 1015.7 1015.7 0.0
21/12:30pm 24.7 28.4 23.3 92 1.0 N 9 13 5 7 1016.1 1016.1 0.0
21/12:00pm 24.3 26.9 23.3 94 0.7 NW 15 19 8 10 1016.7 1016.7 0.0
21/11:30am 23.8 25.8 23.6 99 0.1 NW 19 26 10 14 1017.3 1017.3 0.0
21/11:00am 24.4 27.1 24.2 99 0.1 NNW 17 24 9 13 1017.5 1017.5 0.0
21/10:30am 24.1 26.3 23.9 99 0.1 NW 19 22 10 12 1018.0 1018.0 0.0
21/10:00am 22.6 25.2 22.6 100 0.0 NW 13 17 7 9 1018.0 1018.0 0.0
21/09:30am 21.4 23.3 21.4 100 0.0 NNW 13 17 7 9 1018.4 1018.4 0.0
21/09:00am 21.0 23.1 21.0 100 0.0 NNW 11 13 6 7 1018.4 1018.4 0.0
21/08:30am 19.7 21.2 19.7 100 0.0 NW 11 15 6 8 1018.2 1018.2 0.0
21/08:00am 19.3 20.6 19.3 100 0.0 WNW 11 13 6 7 1018.5 1018.5 0.0
21/07:30am 19.3 20.6 19.3 100 0.0 WNW 11 13 6 7 1018.3 1018.3 0.0
21/07:00am 19.4 20.4 19.4 100 0.0 NW 13 19 7 10 1018.2 1018.2 0.0
21/06:30am 19.2 19.7 19.2 100 0.0 NW 15 17 8 9 1017.7 1017.7 0.0
21/06:00am 19.4 20.4 19.4 100 0.0 NW 13 17 7 9 1017.4 1017.4 0.0
21/05:30am 19.7 21.6 19.7 100 0.0 NNW 9 15 5 8 1017.3 1017.3 0.0
21/05:00am 19.6 21.4 19.6 100 0.0 NNW 9 11 5 6 1017.1 1017.1 0.0
21/04:30am 19.7 21.2 19.7 100 0.0 NW 11 13 6 7 1017.2 1017.2 0.0
21/04:00am 19.7 20.8 19.7 100 0.0 WNW 13 15 7 8 1017.4 1017.4 0.0
21/03:30am 19.8 21.0 19.8 100 0.0 NW 13 13 7 7 1017.3 1017.3 0.0
21/03:00am 20.0 21.6 20.0 100 0.0 NNW 11 13 6 7 1017.5 1017.5 0.0
21/02:30am 20.1 22.2 20.1 100 0.0 NNW 9 13 5 7 1017.4 1017.4 0.0
21/02:00am 20.2 22.3 20.2 100 0.0 N 9 11 5 6 1017.7 1017.7 0.0
21/01:30am 20.4 22.6 20.4 100 0.0 NNW 9 13 5 7 1018.1 1018.1 0.0
21/01:00am 20.4 22.6 20.4 100 0.0 NNW 9 11 5 6 1018.3 1018.3 0.0
21/12:30am 20.4 22.6 20.4 100 0.0 NNW 9 11 5 6 1018.4 1018.4 0.0
21/12:00am 20.4 22.6 20.4 100 0.0 NW 9 15 5 8 1018.8 1018.8 0.0
 
Date/Time
EST
Tmp

°C
App
Tmp
°C
Dew
Point
°C
Rel
Hum
%
Delta-T

°C
Wind Press
QNH
hPa
Press
MSL
hPa
Rain
since
9 am
mm
Dir
 
Spd
km/h
Gust
km/h
Spd
kts
Gust
kts
20/11:30pm 20.3 22.5 20.3 100 0.0 NNW 9 13 5 7 1018.7 1018.7 0.0
20/11:00pm 20.3 22.5 20.3 100 0.0 NW 9 11 5 6 1018.6 1018.6 0.0
20/10:30pm 20.6 22.5 20.6 100 0.0 NW 11 13 6 7 1019.0 1019.0 0.0
20/10:00pm 20.7 21.9 20.7 100 0.0 NW 15 19 8 10 1019.0 1019.0 0.0
20/09:30pm 20.6 22.0 20.3 98 0.2 NW 13 17 7 9 1019.0 1019.0 0.0
20/09:00pm 20.5 21.2 20.5 100 0.0 NW 17 20 9 11 1019.1 1019.1 0.0
20/08:30pm 20.5 21.6 20.5 100 0.0 NW 15 19 8 10 1018.9 1018.9 0.0
20/08:00pm 20.7 21.8 20.5 99 0.1 NNW 15 19 8 10 1018.1 1018.1 0.0
20/07:30pm 21.0 21.9 20.8 99 0.1 NW 17 20 9 11 1018.3 1018.3 0.0
20/07:00pm 21.0 23.0 20.8 99 0.1 NW 11 15 6 8 1018.0 1018.0 0.0
20/06:30pm 21.3 23.1 21.1 99 0.1 NW 13 15 7 8 1018.1 1018.1 0.0
20/06:00pm 21.5 23.0 21.3 99 0.1 NNW 15 17 8 9 1017.9 1017.9 0.0
20/05:30pm 21.9 24.8 21.7 99 0.1 NNW 9 15 5 8 1017.6 1017.6 0.0
20/05:00pm 22.4 23.6 19.9 86 1.6 N 13 17 7 9 1017.6 1017.6 0.0
20/04:30pm 23.0 24.3 19.2 79 2.4 NNW 11 15 6 8 1017.5 1017.5 0.0
20/04:00pm 24.5 25.1 18.7 70 3.7 NNW 13 17 7 9 1017.3 1017.3 0.0
20/03:30pm 24.3 25.1 19.1 73 3.3 NNW 13 19 7 10 1017.2 1017.2 0.0
20/03:00pm 25.0 24.9 18.7 68 4.0 NW 17 22 9 12 1017.1 1017.1 0.0
20/02:30pm 25.2 26.1 20.9 77 2.8 NW 17 20 9 11 1017.3 1017.3 0.0
20/02:00pm 24.5 25.0 21.2 82 2.2 NW 20 24 11 13 1017.5 1017.5 0.0
20/01:30pm 24.3 24.7 20.6 80 2.4 NW 19 26 10 14 1017.6 1017.6 0.0
20/01:00pm 24.3 24.4 20.0 77 2.8 NW 19 26 10 14 1017.7 1017.7 0.0
20/12:30pm 23.7 24.4 21.2 86 1.6 NNW 19 26 10 14 1018.1 1018.1 0.0
20/12:00pm 24.5 25.8 21.6 84 1.9 NNW 17 22 9 12 1018.5 1018.5 0.0
20/11:30am 23.8 25.5 21.7 88 1.4 NW 15 19 8 10 1018.9 1018.9 0.0
20/11:00am 23.6 25.9 23.4 99 0.1 NW 17 20 9 11 1019.6 1019.6 0.0
20/10:30am 23.1 25.1 22.9 99 0.1 WNW 17 22 9 12 1019.9 1019.9 0.0
20/10:00am 22.3 24.6 22.1 99 0.1 W 13 17 7 9 1020.4 1020.4 0.0
20/09:30am 21.7 23.8 21.7 100 0.0 WNW 13 17 7 9 1020.6 1020.6 0.0
20/09:00am 20.7 22.3 20.7 100 0.0 NW 13 17 7 9 1020.5 1020.5 0.0
20/08:30am 19.4 21.1 19.4 100 0.0 NW 9 11 5 6 1020.5 1020.5 0.0

Latest Capital City Observations: Canberra | Sydney | Melbourne | Brisbane | Adelaide | Perth | Hobart | Darwin

Other Formats:

Comma delimited format used in spreadsheet applications
http://www.bom.gov.au/fwo/IDQ60901/IDQ60901.94580.axf

JavaScript Object Notation format (JSON) in row-major order
http://www.bom.gov.au/fwo/IDQ60901/IDQ60901.94580.json